sensor_id;sensor_type;location;lat;lon;timestamp;pressure;altitude;pressure_sealevel;temperature;humidity
49835;BME280;35729;52.090;13.162;2023-07-02T00:01:02;99833.56;;;17.61;85.52
49835;BME280;35729;52.090;13.162;2023-07-02T00:03:30;99837.16;;;17.60;84.86
49835;BME280;35729;52.090;13.162;2023-07-02T00:05:59;99839.72;;;17.62;84.97
49835;BME280;35729;52.090;13.162;2023-07-02T00:08:27;99848.63;;;17.61;84.94
49835;BME280;35729;52.090;13.162;2023-07-02T00:10:56;99841.63;;;17.59;84.70
49835;BME280;35729;52.090;13.162;2023-07-02T00:13:27;99848.69;;;17.59;84.72
49835;BME280;35729;52.090;13.162;2023-07-02T00:15:55;99851.47;;;17.57;84.92
49835;BME280;35729;52.090;13.162;2023-07-02T00:18:24;99854.97;;;17.58;84.78
49835;BME280;35729;52.090;13.162;2023-07-02T00:20:59;99846.28;;;17.56;84.99
49835;BME280;35729;52.090;13.162;2023-07-02T00:23:28;99851.56;;;17.56;84.72
49835;BME280;35729;52.090;13.162;2023-07-02T00:25:56;99840.97;;;17.56;84.76
49835;BME280;35729;52.090;13.162;2023-07-02T00:28:28;99853.38;;;17.55;84.92
49835;BME280;35729;52.090;13.162;2023-07-02T00:30:56;99846.28;;;17.56;84.76
49835;BME280;35729;52.090;13.162;2023-07-02T00:33:24;99847.22;;;17.55;84.87
49835;BME280;35729;52.090;13.162;2023-07-02T00:35:54;99842.84;;;17.54;84.40
49835;BME280;35729;52.090;13.162;2023-07-02T00:38:23;99845.50;;;17.54;84.58
49835;BME280;35729;52.090;13.162;2023-07-02T00:40:51;99848.16;;;17.54;84.50
49835;BME280;35729;52.090;13.162;2023-07-02T00:43:20;99841.19;;;17.53;84.71
49835;BME280;35729;52.090;13.162;2023-07-02T00:45:51;99839.47;;;17.52;84.84
49835;BME280;35729;52.090;13.162;2023-07-02T00:48:20;99854.50;;;17.51;84.38
49835;BME280;35729;52.090;13.162;2023-07-02T00:50:48;99848.38;;;17.51;84.51
49835;BME280;35729;52.090;13.162;2023-07-02T00:53:17;99855.66;;;17.47;84.44
49835;BME280;35729;52.090;13.162;2023-07-02T00:55:52;99859.16;;;17.48;84.37
49835;BME280;35729;52.090;13.162;2023-07-02T00:58:27;99860.03;;;17.48;84.09
49835;BME280;35729;52.090;13.162;2023-07-02T01:00:59;99860.13;;;17.47;84.15
49835;BME280;35729;52.090;13.162;2023-07-02T01:03:27;99852.19;;;17.47;84.11
49835;BME280;35729;52.090;13.162;2023-07-02T01:05:58;99861.19;;;17.44;84.55
49835;BME280;35729;52.090;13.162;2023-07-02T01:08:27;99855.00;;;17.43;84.39
49835;BME280;35729;52.090;13.162;2023-07-02T01:10:55;99853.31;;;17.42;84.25
49835;BME280;35729;52.090;13.162;2023-07-02T01:13:24;99855.97;;;17.42;84.23
49835;BME280;35729;52.090;13.162;2023-07-02T01:15:54;99860.41;;;17.42;84.12
49835;BME280;35729;52.090;13.162;2023-07-02T01:18:26;99851.63;;;17.41;84.10
49835;BME280;35729;52.090;13.162;2023-07-02T01:20:58;99864.97;;;17.40;84.80
49835;BME280;35729;52.090;13.162;2023-07-02T01:23:27;99861.47;;;17.39;84.01
49835;BME280;35729;52.090;13.162;2023-07-02T01:25:55;99865.94;;;17.39;84.53
49835;BME280;35729;52.090;13.162;2023-07-02T01:28:24;99866.88;;;17.38;84.53
49835;BME280;35729;52.090;13.162;2023-07-02T01:30:52;99863.34;;;17.37;84.22
49835;BME280;35729;52.090;13.162;2023-07-02T01:33:21;99866.00;;;17.37;84.45
49835;BME280;35729;52.090;13.162;2023-07-02T01:35:49;99867.00;;;17.36;84.00
49835;BME280;35729;52.090;13.162;2023-07-02T01:38:20;99873.22;;;17.35;84.33
49835;BME280;35729;52.090;13.162;2023-07-02T01:40:49;99874.19;;;17.34;83.84
49835;BME280;35729;52.090;13.162;2023-07-02T01:43:18;99876.06;;;17.32;83.72
49835;BME280;35729;52.090;13.162;2023-07-02T01:45:46;99874.34;;;17.31;83.61
49835;BME280;35729;52.090;13.162;2023-07-02T01:48:14;99870.97;;;17.29;83.62
49835;BME280;35729;52.090;13.162;2023-07-02T01:50:43;99866.63;;;17.28;83.89
49835;BME280;35729;52.090;13.162;2023-07-02T01:53:11;99862.16;;;17.29;83.57
49835;BME280;35729;52.090;13.162;2023-07-02T01:55:43;99855.16;;;17.28;83.64
49835;BME280;35729;52.090;13.162;2023-07-02T01:58:11;99870.19;;;17.27;83.23
49835;BME280;35729;52.090;13.162;2023-07-02T02:00:39;99871.16;;;17.26;83.42
49835;BME280;35729;52.090;13.162;2023-07-02T02:03:08;99876.56;;;17.24;83.30
49835;BME280;35729;52.090;13.162;2023-07-02T02:05:37;99881.00;;;17.24;83.21
49835;BME280;35729;52.090;13.162;2023-07-02T02:08:05;99881.97;;;17.23;82.90
49835;BME280;35729;52.090;13.162;2023-07-02T02:10:33;99880.16;;;17.23;83.26
49835;BME280;35729;52.090;13.162;2023-07-02T02:13:05;99878.38;;;17.24;83.09
49835;BME280;35729;52.090;13.162;2023-07-02T02:15:33;99878.38;;;17.24;82.74
49835;BME280;35729;52.090;13.162;2023-07-02T02:18:02;99874.94;;;17.22;83.10
49835;BME280;35729;52.090;13.162;2023-07-02T02:20:30;99873.25;;;17.21;83.16
49835;BME280;35729;52.090;13.162;2023-07-02T02:22:59;99862.75;;;17.19;82.92
49835;BME280;35729;52.090;13.162;2023-07-02T02:25:27;99867.28;;;17.17;82.97
49835;BME280;35729;52.090;13.162;2023-07-02T02:27:56;99870.91;;;17.16;82.91
49835;BME280;35729;52.090;13.162;2023-07-02T02:30:27;99870.97;;;17.15;82.86
49835;BME280;35729;52.090;13.162;2023-07-02T02:32:55;99873.63;;;17.15;82.97
49835;BME280;35729;52.090;13.162;2023-07-02T02:35:24;99870.25;;;17.13;82.91
49835;BME280;35729;52.090;13.162;2023-07-02T02:37:52;99871.28;;;17.10;82.94
49835;BME280;35729;52.090;13.162;2023-07-02T02:40:21;99878.38;;;17.09;83.09
49835;BME280;35729;52.090;13.162;2023-07-02T02:42:49;99886.53;;;17.06;82.86
49835;BME280;35729;52.090;13.162;2023-07-02T02:45:18;99881.41;;;17.03;83.00
49835;BME280;35729;52.090;13.162;2023-07-02T02:47:49;99885.19;;;16.99;83.07
49835;BME280;35729;52.090;13.162;2023-07-02T02:50:17;99887.94;;;16.98;82.74
49835;BME280;35729;52.090;13.162;2023-07-02T02:52:46;99883.69;;;16.95;82.77
49835;BME280;35729;52.090;13.162;2023-07-02T02:55:14;99894.41;;;16.93;82.90
49835;BME280;35729;52.090;13.162;2023-07-02T02:57:43;99890.97;;;16.91;82.47
49835;BME280;35729;52.090;13.162;2023-07-02T03:00:12;99896.34;;;16.90;82.69
49835;BME280;35729;52.090;13.162;2023-07-02T03:02:42;99891.16;;;16.88;82.90
49835;BME280;35729;52.090;13.162;2023-07-02T03:05:13;99887.63;;;16.88;82.86
49835;BME280;35729;52.090;13.162;2023-07-02T03:07:42;99893.88;;;16.87;82.50
49835;BME280;35729;52.090;13.162;2023-07-02T03:10:10;99892.09;;;16.87;82.50
49835;BME280;35729;52.090;13.162;2023-07-02T03:12:39;99891.22;;;16.87;82.77
49835;BME280;35729;52.090;13.162;2023-07-02T03:15:08;99886.97;;;16.84;82.34
49835;BME280;35729;52.090;13.162;2023-07-02T03:17:37;99892.34;;;16.83;82.10
49835;BME280;35729;52.090;13.162;2023-07-02T03:20:07;99898.59;;;16.82;82.04
49835;BME280;35729;52.090;13.162;2023-07-02T03:22:38;99896.88;;;16.81;82.26
49835;BME280;35729;52.090;13.162;2023-07-02T03:25:08;99888.09;;;16.80;81.97
49835;BME280;35729;52.090;13.162;2023-07-02T03:27:37;99890.09;;;16.76;81.78
49835;BME280;35729;52.090;13.162;2023-07-02T03:30:07;99890.94;;;16.77;81.61
49835;BME280;35729;52.090;13.162;2023-07-02T03:32:35;99893.59;;;16.77;81.51
49835;BME280;35729;52.090;13.162;2023-07-02T03:35:05;99905.03;;;16.77;81.11
49835;BME280;35729;52.090;13.162;2023-07-02T03:37:33;99905.97;;;16.76;80.90
49835;BME280;35729;52.090;13.162;2023-07-02T03:40:06;99898.13;;;16.75;80.70
49835;BME280;35729;52.090;13.162;2023-07-02T03:42:34;99898.22;;;16.73;80.73
49835;BME280;35729;52.090;13.162;2023-07-02T03:45:03;99905.31;;;16.73;80.58
49835;BME280;35729;52.090;13.162;2023-07-02T03:47:32;99901.72;;;16.74;80.70
49835;BME280;35729;52.090;13.162;2023-07-02T03:50:01;99909.56;;;16.75;80.47
49835;BME280;35729;52.090;13.162;2023-07-02T03:52:29;99911.28;;;16.76;80.39
49835;BME280;35729;52.090;13.162;2023-07-02T03:54:57;99910.34;;;16.77;80.52
49835;BME280;35729;52.090;13.162;2023-07-02T03:57:29;99916.41;;;16.80;80.35
49835;BME280;35729;52.090;13.162;2023-07-02T03:59:57;99918.28;;;16.77;80.27
49835;BME280;35729;52.090;13.162;2023-07-02T04:02:25;99923.56;;;16.77;80.05
49835;BME280;35729;52.090;13.162;2023-07-02T04:04:54;99927.94;;;16.78;80.29
49835;BME280;35729;52.090;13.162;2023-07-02T04:07:23;99932.28;;;16.80;80.11
49835;BME280;35729;52.090;13.162;2023-07-02T04:09:51;99931.31;;;16.81;80.25
49835;BME280;35729;52.090;13.162;2023-07-02T04:12:20;99925.09;;;16.82;79.70
49835;BME280;35729;52.090;13.162;2023-07-02T04:14:51;99942.69;;;16.83;79.90
49835;BME280;35729;52.090;13.162;2023-07-02T04:17:19;99944.41;;;16.84;79.77
49835;BME280;35729;52.090;13.162;2023-07-02T04:19:48;99957.53;;;16.85;79.54
49835;BME280;35729;52.090;13.162;2023-07-02T04:22:17;99949.50;;;16.87;79.46
49835;BME280;35729;52.090;13.162;2023-07-02T04:24:45;99953.75;;;16.89;79.38
49835;BME280;35729;52.090;13.162;2023-07-02T04:27:14;99949.31;;;16.90;79.24
49835;BME280;35729;52.090;13.162;2023-07-02T04:29:42;99949.25;;;16.91;79.34
49835;BME280;35729;52.090;13.162;2023-07-02T04:32:14;99949.16;;;16.93;79.18
49835;BME280;35729;52.090;13.162;2023-07-02T04:34:42;99941.03;;;16.96;78.81
49835;BME280;35729;52.090;13.162;2023-07-02T04:37:10;99949.66;;;17.00;79.06
49835;BME280;35729;52.090;13.162;2023-07-02T04:39:40;99943.31;;;17.02;78.89
49835;BME280;35729;52.090;13.162;2023-07-02T04:42:09;99946.69;;;17.04;78.25
49835;BME280;35729;52.090;13.162;2023-07-02T04:44:38;99957.13;;;17.07;77.90
49835;BME280;35729;52.090;13.162;2023-07-02T04:47:09;99961.47;;;17.08;77.90
49835;BME280;35729;52.090;13.162;2023-07-02T04:49:40;99963.94;;;17.12;77.37
49835;BME280;35729;52.090;13.162;2023-07-02T04:52:08;99974.53;;;17.12;77.03
49835;BME280;35729;52.090;13.162;2023-07-02T04:54:37;99972.66;;;17.14;77.48
49835;BME280;35729;52.090;13.162;2023-07-02T04:57:05;99966.31;;;17.16;76.89
49835;BME280;35729;52.090;13.162;2023-07-02T04:59:34;99966.94;;;17.20;76.89
49835;BME280;35729;52.090;13.162;2023-07-02T05:02:02;99952.59;;;17.24;76.11
49835;BME280;35729;52.090;13.162;2023-07-02T05:04:31;99954.09;;;17.28;76.16
49835;BME280;35729;52.090;13.162;2023-07-02T05:07:02;99956.63;;;17.30;75.54
49835;BME280;35729;52.090;13.162;2023-07-02T05:09:31;99961.75;;;17.33;75.71
49835;BME280;35729;52.090;13.162;2023-07-02T05:11:59;99971.31;;;17.35;75.35
49835;BME280;35729;52.090;13.162;2023-07-02T05:14:28;99963.16;;;17.38;75.21
49835;BME280;35729;52.090;13.162;2023-07-02T05:16:56;99963.94;;;17.40;74.97
49835;BME280;35729;52.090;13.162;2023-07-02T05:19:25;99970.06;;;17.41;74.28
49835;BME280;35729;52.090;13.162;2023-07-02T05:21:53;99963.81;;;17.42;74.04
49835;BME280;35729;52.090;13.162;2023-07-02T05:24:24;99979.53;;;17.45;73.99
49835;BME280;35729;52.090;13.162;2023-07-02T05:26:53;99983.72;;;17.49;73.61
49835;BME280;35729;52.090;13.162;2023-07-02T05:29:21;99980.75;;;17.54;73.47
49835;BME280;35729;52.090;13.162;2023-07-02T05:31:50;99977.81;;;17.58;73.33
49835;BME280;35729;52.090;13.162;2023-07-02T05:34:18;99990.03;;;17.61;72.91
49835;BME280;35729;52.090;13.162;2023-07-02T05:36:47;99991.84;;;17.61;72.45
49835;BME280;35729;52.090;13.162;2023-07-02T05:39:15;99992.78;;;17.59;72.37
49835;BME280;35729;52.090;13.162;2023-07-02T05:41:46;99987.28;;;17.63;72.32
49835;BME280;35729;52.090;13.162;2023-07-02T05:44:15;99987.28;;;17.63;72.38
49835;BME280;35729;52.090;13.162;2023-07-02T05:46:45;100000.75;;;17.59;71.39
49835;BME280;35729;52.090;13.162;2023-07-02T05:49:13;100000.91;;;17.56;70.90
49835;BME280;35729;52.090;13.162;2023-07-02T05:51:41;99991.28;;;17.55;70.85
49835;BME280;35729;52.090;13.162;2023-07-02T05:54:10;99994.78;;;17.56;71.43
49835;BME280;35729;52.090;13.162;2023-07-02T05:56:38;100004.44;;;17.57;71.33
49835;BME280;35729;52.090;13.162;2023-07-02T05:59:09;100003.50;;;17.58;71.05
49835;BME280;35729;52.090;13.162;2023-07-02T06:01:43;100010.47;;;17.59;71.21
49835;BME280;35729;52.090;13.162;2023-07-02T06:04:11;100017.03;;;17.53;69.86
49835;BME280;35729;52.090;13.162;2023-07-02T06:06:40;100007.28;;;17.54;70.16
49835;BME280;35729;52.090;13.162;2023-07-02T06:09:15;100002.94;;;17.53;68.86
49835;BME280;35729;52.090;13.162;2023-07-02T06:11:44;100006.44;;;17.53;69.41
49835;BME280;35729;52.090;13.162;2023-07-02T06:14:15;100003.88;;;17.52;68.30
49835;BME280;35729;52.090;13.162;2023-07-02T06:16:43;100001.97;;;17.54;68.74
49835;BME280;35729;52.090;13.162;2023-07-02T06:19:12;100004.44;;;17.57;68.89
49835;BME280;35729;52.090;13.162;2023-07-02T06:21:40;100000.53;;;17.63;67.75
49835;BME280;35729;52.090;13.162;2023-07-02T06:24:15;100020.81;;;17.64;66.53
49835;BME280;35729;52.090;13.162;2023-07-02T06:26:43;100005.56;;;17.67;67.10
49835;BME280;35729;52.090;13.162;2023-07-02T06:29:15;100001.03;;;17.69;66.86
49835;BME280;35729;52.090;13.162;2023-07-02T06:31:43;100008.66;;;17.74;66.16
49835;BME280;35729;52.090;13.162;2023-07-02T06:34:12;100000.44;;;17.79;65.94
49835;BME280;35729;52.090;13.162;2023-07-02T06:36:40;99997.56;;;17.82;65.06
49835;BME280;35729;52.090;13.162;2023-07-02T06:39:09;100002.88;;;17.82;65.27
49835;BME280;35729;52.090;13.162;2023-07-02T06:41:37;100010.56;;;17.86;64.84
49835;BME280;35729;52.090;13.162;2023-07-02T06:44:06;100003.94;;;17.94;65.38
49835;BME280;35729;52.090;13.162;2023-07-02T06:46:37;100001.34;;;18.06;64.34
49835;BME280;35729;52.090;13.162;2023-07-02T06:49:06;100012.88;;;18.20;63.63
49835;BME280;35729;52.090;13.162;2023-07-02T06:51:34;100003.25;;;18.32;63.38
49835;BME280;35729;52.090;13.162;2023-07-02T06:54:03;100000.81;;;18.42;62.82
49835;BME280;35729;52.090;13.162;2023-07-02T06:56:31;100010.66;;;18.54;62.44
49835;BME280;35729;52.090;13.162;2023-07-02T06:59:06;100003.66;;;18.66;60.40
49835;BME280;35729;52.090;13.162;2023-07-02T07:01:37;100018.22;;;18.73;61.20
49835;BME280;35729;52.090;13.162;2023-07-02T07:04:06;100007.47;;;18.75;61.33
49835;BME280;35729;52.090;13.162;2023-07-02T07:06:34;100022.06;;;18.82;61.01
49835;BME280;35729;52.090;13.162;2023-07-02T07:09:02;100009.19;;;18.88;60.80
49835;BME280;35729;52.090;13.162;2023-07-02T07:11:31;100006.03;;;18.96;60.88
49835;BME280;35729;52.090;13.162;2023-07-02T07:13:59;100002.97;;;19.02;60.28
49835;BME280;35729;52.090;13.162;2023-07-02T07:16:28;100017.63;;;19.08;59.44
49835;BME280;35729;52.090;13.162;2023-07-02T07:18:59;99999.13;;;19.07;57.30
49835;BME280;35729;52.090;13.162;2023-07-02T07:21:28;100008.28;;;19.02;57.38
49835;BME280;35729;52.090;13.162;2023-07-02T07:23:57;100013.72;;;19.01;58.62
49835;BME280;35729;52.090;13.162;2023-07-02T07:26:25;100012.75;;;19.02;58.06
49835;BME280;35729;52.090;13.162;2023-07-02T07:28:53;100015.09;;;19.07;58.23
49835;BME280;35729;52.090;13.162;2023-07-02T07:31:23;100018.09;;;19.15;58.54
49835;BME280;35729;52.090;13.162;2023-07-02T07:33:52;100022.75;;;19.24;58.04
49835;BME280;35729;52.090;13.162;2023-07-02T07:36:23;100026.03;;;19.28;57.21
49835;BME280;35729;52.090;13.162;2023-07-02T07:38:51;100017.66;;;19.34;57.88
49835;BME280;35729;52.090;13.162;2023-07-02T07:41:20;100022.53;;;19.40;57.74
49835;BME280;35729;52.090;13.162;2023-07-02T07:43:48;100022.19;;;19.45;57.51
49835;BME280;35729;52.090;13.162;2023-07-02T07:46:17;100032.53;;;19.49;57.02
49835;BME280;35729;52.090;13.162;2023-07-02T07:48:45;100036.66;;;19.53;56.48
49835;BME280;35729;52.090;13.162;2023-07-02T07:51:13;100024.94;;;19.56;56.39
49835;BME280;35729;52.090;13.162;2023-07-02T07:53:45;100022.28;;;19.56;55.64
49835;BME280;35729;52.090;13.162;2023-07-02T07:56:13;100038.88;;;19.60;55.45
49835;BME280;35729;52.090;13.162;2023-07-02T07:58:41;100045.06;;;19.60;55.55
49835;BME280;35729;52.090;13.162;2023-07-02T08:01:10;100037.81;;;19.62;54.87
49835;BME280;35729;52.090;13.162;2023-07-02T08:03:38;100035.66;;;19.67;54.34
49835;BME280;35729;52.090;13.162;2023-07-02T08:06:07;100052.50;;;19.68;53.47
49835;BME280;35729;52.090;13.162;2023-07-02T08:08:35;100048.03;;;19.68;54.47
49835;BME280;35729;52.090;13.162;2023-07-02T08:11:06;100038.44;;;19.66;53.83
49835;BME280;35729;52.090;13.162;2023-07-02T08:13:35;100037.72;;;19.64;54.25
49835;BME280;35729;52.090;13.162;2023-07-02T08:16:04;100042.41;;;19.60;54.05
49835;BME280;35729;52.090;13.162;2023-07-02T08:18:34;100041.78;;;19.57;54.30
49835;BME280;35729;52.090;13.162;2023-07-02T08:21:03;100035.81;;;19.53;54.79
49835;BME280;35729;52.090;13.162;2023-07-02T08:23:31;100042.97;;;19.52;55.17
49835;BME280;35729;52.090;13.162;2023-07-02T08:26:00;100042.31;;;19.49;55.88
49835;BME280;35729;52.090;13.162;2023-07-02T08:28:31;100043.16;;;19.49;56.16
49835;BME280;35729;52.090;13.162;2023-07-02T08:30:59;100052.19;;;19.47;55.67
49835;BME280;35729;52.090;13.162;2023-07-02T08:33:28;100057.53;;;19.47;55.91
49835;BME280;35729;52.090;13.162;2023-07-02T08:35:56;100061.25;;;19.44;55.74
49835;BME280;35729;52.090;13.162;2023-07-02T08:38:26;100054.34;;;19.42;55.38
49835;BME280;35729;52.090;13.162;2023-07-02T08:40:54;100071.25;;;19.41;55.54
49835;BME280;35729;52.090;13.162;2023-07-02T08:43:25;100059.13;;;19.36;55.25
49835;BME280;35729;52.090;13.162;2023-07-02T08:45:57;100075.19;;;19.35;55.62
49835;BME280;35729;52.090;13.162;2023-07-02T08:48:26;100064.66;;;19.33;55.57
49835;BME280;35729;52.090;13.162;2023-07-02T08:50:55;100069.66;;;19.25;55.84
49835;BME280;35729;52.090;13.162;2023-07-02T08:53:23;100100.63;;;19.13;57.47
49835;BME280;35729;52.090;13.162;2023-07-02T08:55:55;100090.59;;;19.04;59.24
49835;BME280;35729;52.090;13.162;2023-07-02T08:58:24;100088.28;;;18.85;61.14
49835;BME280;35729;52.090;13.162;2023-07-02T09:01:06;100137.81;;;18.59;64.76
49835;BME280;35729;52.090;13.162;2023-07-02T09:03:35;100134.69;;;18.24;66.36
49835;BME280;35729;52.090;13.162;2023-07-02T09:06:06;100145.19;;;17.83;67.14
49835;BME280;35729;52.090;13.162;2023-07-02T09:08:35;100134.84;;;17.35;70.36
49835;BME280;35729;52.090;13.162;2023-07-02T09:11:10;100125.53;;;16.97;73.13
49835;BME280;35729;52.090;13.162;2023-07-02T09:13:47;100127.50;;;16.63;75.73
49835;BME280;35729;52.090;13.162;2023-07-02T09:16:26;100126.81;;;16.43;74.56
49835;BME280;35729;52.090;13.162;2023-07-02T09:19:02;100113.31;;;16.32;76.47
49835;BME280;35729;52.090;13.162;2023-07-02T09:21:42;100108.53;;;16.23;78.51
49835;BME280;35729;52.090;13.162;2023-07-02T09:24:13;100107.84;;;16.19;76.37
49835;BME280;35729;52.090;13.162;2023-07-02T09:26:43;100105.22;;;16.19;76.55
49835;BME280;35729;52.090;13.162;2023-07-02T09:29:12;100096.16;;;16.23;76.61
49835;BME280;35729;52.090;13.162;2023-07-02T09:31:47;100101.19;;;16.28;76.80
49835;BME280;35729;52.090;13.162;2023-07-02T09:34:15;100101.78;;;16.33;76.68
49835;BME280;35729;52.090;13.162;2023-07-02T09:36:44;100105.88;;;16.39;76.69
49835;BME280;35729;52.090;13.162;2023-07-02T09:39:14;100103.56;;;16.49;76.94
49835;BME280;35729;52.090;13.162;2023-07-02T09:41:43;100104.16;;;16.54;76.76
49835;BME280;35729;52.090;13.162;2023-07-02T09:44:13;100107.22;;;16.62;76.55
49835;BME280;35729;52.090;13.162;2023-07-02T09:46:49;100109.25;;;16.73;76.65
49835;BME280;35729;52.090;13.162;2023-07-02T09:49:21;100115.47;;;16.88;76.81
49835;BME280;35729;52.090;13.162;2023-07-02T09:51:51;100107.50;;;17.04;76.85
49835;BME280;35729;52.090;13.162;2023-07-02T09:54:19;100113.50;;;17.22;76.98
49835;BME280;35729;52.090;13.162;2023-07-02T09:56:48;100110.81;;;17.38;76.67
49835;BME280;35729;52.090;13.162;2023-07-02T09:59:16;100112.41;;;17.55;76.17
49835;BME280;35729;52.090;13.162;2023-07-02T10:02:01;100115.81;;;17.71;75.54
49835;BME280;35729;52.090;13.162;2023-07-02T10:04:39;100114.91;;;17.87;74.44
49835;BME280;35729;52.090;13.162;2023-07-02T10:07:08;100110.38;;;18.03;73.13
49835;BME280;35729;52.090;13.162;2023-07-02T10:09:38;100118.09;;;18.21;72.55
49835;BME280;35729;52.090;13.162;2023-07-02T10:12:18;100112.66;;;18.37;71.23
49835;BME280;35729;52.090;13.162;2023-07-02T10:14:47;100111.75;;;18.51;68.54
49835;BME280;35729;52.090;13.162;2023-07-02T10:17:29;100104.06;;;18.61;65.93
49835;BME280;35729;52.090;13.162;2023-07-02T10:20:00;100124.78;;;18.68;64.44
49835;BME280;35729;52.090;13.162;2023-07-02T10:22:42;100109.41;;;18.73;63.63
49835;BME280;35729;52.090;13.162;2023-07-02T10:25:10;100114.22;;;18.81;63.04
49835;BME280;35729;52.090;13.162;2023-07-02T10:27:40;100110.31;;;18.87;61.79
49835;BME280;35729;52.090;13.162;2023-07-02T10:30:10;100107.53;;;18.88;61.64
49835;BME280;35729;52.090;13.162;2023-07-02T10:32:41;100108.09;;;18.94;60.65
49835;BME280;35729;52.090;13.162;2023-07-02T10:35:15;100118.22;;;19.01;59.96
49835;BME280;35729;52.090;13.162;2023-07-02T10:37:45;100121.00;;;19.13;60.43
49835;BME280;35729;52.090;13.162;2023-07-02T10:40:13;100122.09;;;19.23;59.57
49835;BME280;35729;52.090;13.162;2023-07-02T10:42:46;100110.72;;;19.34;58.83
49835;BME280;35729;52.090;13.162;2023-07-02T10:45:15;100119.88;;;19.43;58.06
49835;BME280;35729;52.090;13.162;2023-07-02T10:47:46;100127.44;;;19.49;57.77
49835;BME280;35729;52.090;13.162;2023-07-02T10:50:16;100125.97;;;19.58;57.46
49835;BME280;35729;52.090;13.162;2023-07-02T10:52:45;100108.69;;;19.63;57.26
49835;BME280;35729;52.090;13.162;2023-07-02T10:55:18;100130.84;;;19.64;55.97
49835;BME280;35729;52.090;13.162;2023-07-02T10:57:47;100108.69;;;19.76;57.40
49835;BME280;35729;52.090;13.162;2023-07-02T11:00:17;100099.97;;;19.87;57.09
49835;BME280;35729;52.090;13.162;2023-07-02T11:02:48;100101.03;;;19.97;54.04
49835;BME280;35729;52.090;13.162;2023-07-02T11:05:17;100101.84;;;20.11;55.85
49835;BME280;35729;52.090;13.162;2023-07-02T11:07:46;100095.63;;;20.23;54.59
49835;BME280;35729;52.090;13.162;2023-07-02T11:10:23;100104.25;;;20.27;54.71
49835;BME280;35729;52.090;13.162;2023-07-02T11:12:51;100120.13;;;20.28;53.81
49835;BME280;35729;52.090;13.162;2023-07-02T11:15:20;100119.38;;;20.26;53.11
49835;BME280;35729;52.090;13.162;2023-07-02T11:17:51;100098.06;;;20.26;53.35
49835;BME280;35729;52.090;13.162;2023-07-02T11:20:19;100097.28;;;20.37;53.74
49835;BME280;35729;52.090;13.162;2023-07-02T11:22:48;100093.09;;;20.46;53.59
49835;BME280;35729;52.090;13.162;2023-07-02T11:25:18;100096.16;;;20.53;53.56
49835;BME280;35729;52.090;13.162;2023-07-02T11:27:47;100101.66;;;20.62;50.89
49835;BME280;35729;52.090;13.162;2023-07-02T11:30:15;100090.53;;;20.68;49.19
49835;BME280;35729;52.090;13.162;2023-07-02T11:32:48;100118.34;;;20.77;47.62
49835;BME280;35729;52.090;13.162;2023-07-02T11:35:20;100085.78;;;20.85;47.68
49835;BME280;35729;52.090;13.162;2023-07-02T11:37:48;100084.13;;;20.95;48.23
49835;BME280;35729;52.090;13.162;2023-07-02T11:40:17;100089.03;;;21.13;47.83
49835;BME280;35729;52.090;13.162;2023-07-02T11:42:46;100100.44;;;21.26;47.18
49835;BME280;35729;52.090;13.162;2023-07-02T11:45:15;100105.81;;;21.38;45.69
49835;BME280;35729;52.090;13.162;2023-07-02T11:47:43;100102.06;;;21.40;46.04
49835;BME280;35729;52.090;13.162;2023-07-02T11:50:12;100102.78;;;21.31;45.50
49835;BME280;35729;52.090;13.162;2023-07-02T11:52:44;100135.38;;;21.23;45.43
49835;BME280;35729;52.090;13.162;2023-07-02T11:55:12;100100.44;;;21.26;44.84
49835;BME280;35729;52.090;13.162;2023-07-02T11:57:41;100102.53;;;21.34;45.29
49835;BME280;35729;52.090;13.162;2023-07-02T12:00:10;100111.00;;;21.39;44.03
49835;BME280;35729;52.090;13.162;2023-07-02T12:02:45;100103.41;;;21.46;43.96
49835;BME280;35729;52.090;13.162;2023-07-02T12:05:14;100121.84;;;21.49;43.10
49835;BME280;35729;52.090;13.162;2023-07-02T12:07:45;100108.13;;;21.54;43.42
49835;BME280;35729;52.090;13.162;2023-07-02T12:10:13;100109.03;;;21.66;43.71
49835;BME280;35729;52.090;13.162;2023-07-02T12:12:42;100125.31;;;21.85;42.51
49835;BME280;35729;52.090;13.162;2023-07-02T12:15:10;100101.47;;;22.05;41.88
49835;BME280;35729;52.090;13.162;2023-07-02T12:17:39;100099.66;;;22.17;41.32
49835;BME280;35729;52.090;13.162;2023-07-02T12:20:08;100117.50;;;22.16;40.83
49835;BME280;35729;52.090;13.162;2023-07-02T12:22:37;100103.69;;;22.00;38.93
49835;BME280;35729;52.090;13.162;2023-07-02T12:25:08;100147.97;;;21.91;39.55
49835;BME280;35729;52.090;13.162;2023-07-02T12:27:37;100184.28;;;21.82;40.55
49835;BME280;35729;52.090;13.162;2023-07-02T12:30:07;100119.84;;;21.75;40.03
49835;BME280;35729;52.090;13.162;2023-07-02T12:32:38;100103.56;;;21.78;39.44
49835;BME280;35729;52.090;13.162;2023-07-02T12:35:07;100101.63;;;21.92;40.44
49835;BME280;35729;52.090;13.162;2023-07-02T12:37:43;100111.44;;;22.14;39.62
49835;BME280;35729;52.090;13.162;2023-07-02T12:40:14;100114.19;;;22.35;39.18
49835;BME280;35729;52.090;13.162;2023-07-02T12:42:43;100110.16;;;22.52;39.90
49835;BME280;35729;52.090;13.162;2023-07-02T12:45:12;100115.13;;;22.57;38.70
49835;BME280;35729;52.090;13.162;2023-07-02T12:47:42;100107.03;;;22.47;38.55
49835;BME280;35729;52.090;13.162;2023-07-02T12:50:11;100139.09;;;22.36;39.51
49835;BME280;35729;52.090;13.162;2023-07-02T12:52:39;100114.06;;;22.25;39.41
49835;BME280;35729;52.090;13.162;2023-07-02T12:55:08;100115.91;;;22.25;39.63
49835;BME280;35729;52.090;13.162;2023-07-02T12:57:39;100120.38;;;22.36;38.62